createdAt,value
2018-06-25T00:00:14.188Z,17.78
2018-06-25T00:02:42.262Z,17.74
2018-06-25T00:05:10.387Z,17.76
2018-06-25T00:07:38.454Z,17.77
2018-06-25T00:10:06.675Z,17.82
2018-06-25T00:12:34.795Z,17.76
2018-06-25T00:15:02.919Z,17.63
2018-06-25T00:17:31.036Z,17.31
2018-06-25T00:19:59.176Z,17.17
2018-06-25T00:22:27.282Z,17.18
2018-06-25T00:24:55.378Z,17.22
2018-06-25T00:27:23.571Z,17.25
2018-06-25T00:29:51.675Z,17.10
2018-06-25T00:32:19.765Z,17.11
2018-06-25T00:34:47.875Z,17.04
2018-06-25T00:37:15.998Z,16.98
2018-06-25T00:39:44.094Z,17.05
2018-06-25T00:42:12.236Z,17.16
2018-06-25T00:44:40.316Z,17.04
2018-06-25T00:47:08.447Z,17.05
2018-06-25T00:49:36.538Z,16.91
2018-06-25T00:52:04.659Z,16.90
2018-06-25T00:54:32.744Z,16.78
2018-06-25T00:57:00.840Z,16.73
2018-06-25T00:59:40.188Z,16.58
2018-06-25T01:02:08.303Z,16.64
2018-06-25T01:04:36.379Z,16.67
2018-06-25T01:07:04.474Z,16.67
2018-06-25T01:09:32.595Z,16.69
2018-06-25T01:12:00.698Z,16.56
2018-06-25T01:14:28.770Z,16.60
2018-06-25T01:16:56.861Z,16.56
2018-06-25T01:19:25.037Z,16.56
2018-06-25T01:21:53.128Z,16.61
2018-06-25T01:24:21.195Z,16.80
2018-06-25T01:26:49.289Z,16.77
2018-06-25T01:29:17.517Z,16.69
2018-06-25T01:31:45.583Z,16.75
2018-06-25T01:34:13.723Z,16.54
2018-06-25T01:36:41.806Z,16.57
2018-06-25T01:39:11.107Z,16.62
2018-06-25T01:41:39.344Z,16.63
2018-06-25T01:44:07.551Z,16.60
2018-06-25T01:46:36.050Z,16.40
2018-06-25T01:49:04.275Z,16.33
2018-06-25T01:51:32.360Z,16.50
2018-06-25T01:54:00.461Z,16.50
2018-06-25T01:56:28.534Z,16.51
2018-06-25T01:58:56.624Z,16.45
2018-06-25T02:01:24.744Z,16.48
2018-06-25T02:03:52.854Z,16.47
2018-06-25T02:06:20.947Z,16.54
2018-06-25T02:08:49.019Z,16.48
2018-06-25T02:11:17.142Z,16.43
2018-06-25T02:13:45.237Z,16.40
2018-06-25T02:16:13.303Z,16.54
2018-06-25T02:18:41.452Z,16.29
2018-06-25T02:21:09.559Z,16.32
2018-06-25T02:23:37.638Z,16.24
2018-06-25T02:26:05.783Z,16.21
2018-06-25T02:28:33.888Z,16.19
2018-06-25T02:31:01.958Z,16.09
2018-06-25T02:33:30.032Z,16.10
2018-06-25T02:35:58.096Z,16.16
2018-06-25T02:38:26.188Z,16.09
2018-06-25T02:40:54.259Z,16.19
2018-06-25T02:43:22.330Z,16.02
2018-06-25T02:45:50.407Z,15.97
2018-06-25T02:48:18.496Z,15.99
2018-06-25T02:50:46.564Z,15.99
2018-06-25T02:53:14.672Z,16.08
2018-06-25T02:55:42.827Z,16.02
2018-06-25T02:58:10.916Z,15.96
2018-06-25T03:00:39.007Z,16.12
2018-06-25T03:03:07.083Z,16.07
2018-06-25T03:05:35.215Z,16.10
2018-06-25T03:08:03.316Z,16.25
2018-06-25T03:10:31.425Z,16.45
2018-06-25T03:12:59.561Z,16.07
2018-06-25T03:15:27.676Z,16.04
2018-06-25T03:17:55.806Z,16.04
2018-06-25T03:20:23.887Z,16.05
2018-06-25T03:22:51.971Z,16.03
2018-06-25T03:25:20.158Z,16.02
2018-06-25T03:27:48.296Z,15.95
2018-06-25T03:30:16.374Z,15.93
2018-06-25T03:32:44.545Z,15.83
2018-06-25T03:35:12.629Z,15.85
2018-06-25T03:37:40.810Z,15.87
2018-06-25T03:40:08.957Z,15.78
2018-06-25T03:42:37.040Z,15.72
2018-06-25T03:45:05.264Z,15.76
2018-06-25T03:47:33.448Z,15.84
2018-06-25T03:50:01.631Z,15.96
2018-06-25T03:52:29.752Z,15.94
2018-06-25T03:54:57.860Z,16.03
2018-06-25T03:57:26.009Z,15.96
2018-06-25T03:59:54.115Z,16.05
2018-06-25T04:02:22.188Z,16.08
2018-06-25T04:04:50.409Z,16.13
2018-06-25T04:07:18.533Z,16.24
2018-06-25T04:09:46.633Z,16.13
2018-06-25T04:12:14.800Z,16.34
2018-06-25T04:15:02.319Z,16.34
2018-06-25T04:17:30.411Z,16.54
2018-06-25T04:19:58.471Z,16.47
2018-06-25T04:22:26.556Z,16.62
2018-06-25T04:24:54.657Z,16.45
2018-06-25T04:27:22.739Z,16.64
2018-06-25T04:29:50.819Z,16.77
2018-06-25T04:32:18.899Z,16.81
2018-06-25T04:34:46.992Z,16.84
2018-06-25T04:40:08.058Z,16.82
2018-06-25T04:42:36.144Z,16.79
2018-06-25T04:45:04.401Z,16.93
2018-06-25T04:47:32.459Z,16.93
2018-06-25T04:50:00.575Z,16.96
2018-06-25T04:52:28.627Z,17.06
2018-06-25T04:54:56.707Z,17.09
2018-06-25T04:57:24.771Z,17.18
2018-06-25T04:59:52.842Z,17.15
2018-06-25T05:02:20.930Z,17.08
2018-06-25T05:04:49.017Z,17.15
2018-06-25T05:07:17.081Z,17.23
2018-06-25T05:09:45.168Z,17.30
2018-06-25T05:12:13.310Z,17.34
2018-06-25T05:14:41.411Z,17.53
2018-06-25T05:17:09.482Z,17.57
2018-06-25T05:19:37.555Z,17.41
2018-06-25T05:22:05.693Z,17.13
2018-06-25T05:24:33.791Z,17.12
2018-06-25T05:27:01.913Z,17.02
2018-06-25T05:29:30.034Z,17.25
2018-06-25T05:31:58.433Z,17.29
2018-06-25T05:34:26.515Z,17.38
2018-06-25T05:36:54.982Z,17.01
2018-06-25T05:39:23.070Z,16.87
2018-06-25T05:41:51.163Z,17.10
2018-06-25T05:44:19.263Z,17.12
2018-06-25T05:46:47.327Z,17.34
2018-06-25T05:49:15.421Z,17.30
2018-06-25T05:51:43.514Z,17.58
2018-06-25T05:54:11.591Z,17.69
2018-06-25T05:56:39.679Z,17.59
2018-06-25T05:59:07.783Z,17.78
2018-06-25T06:01:35.880Z,17.84
2018-06-25T06:04:03.951Z,17.81
2018-06-25T06:06:32.048Z,17.84
2018-06-25T06:09:00.190Z,17.62
2018-06-25T06:11:28.329Z,17.63
2018-06-25T06:13:56.815Z,17.68
2018-06-25T06:16:24.855Z,17.88
2018-06-25T06:18:52.963Z,17.81
2018-06-25T06:21:21.039Z,17.59
2018-06-25T06:23:49.120Z,17.56
2018-06-25T06:26:17.286Z,17.70
2018-06-25T06:28:51.719Z,17.56
2018-06-25T06:31:19.790Z,17.76
2018-06-25T06:33:47.871Z,17.71
2018-06-25T06:36:15.943Z,17.56
2018-06-25T06:38:44.047Z,17.62
2018-06-25T06:41:12.131Z,17.51
2018-06-25T06:43:40.208Z,17.55
2018-06-25T06:46:08.287Z,17.79
2018-06-25T06:48:36.368Z,18.18
2018-06-25T06:51:04.435Z,18.44
2018-06-25T06:53:32.524Z,18.58
2018-06-25T06:56:00.627Z,18.43
2018-06-25T06:58:28.738Z,18.52
2018-06-25T07:00:56.795Z,18.61
2018-06-25T07:03:24.904Z,18.68
2018-06-25T07:05:53.120Z,18.58
2018-06-25T07:08:21.307Z,18.52
2018-06-25T07:10:49.379Z,18.31
2018-06-25T07:13:17.441Z,18.22
2018-06-25T07:15:45.516Z,18.16
2018-06-25T07:18:13.614Z,18.56
2018-06-25T07:20:41.702Z,18.51
2018-06-25T07:23:09.780Z,18.49
2018-06-25T07:25:37.862Z,18.84
2018-06-25T07:28:06.274Z,18.74
2018-06-25T07:30:34.356Z,18.93
2018-06-25T07:33:02.483Z,19.08
2018-06-25T07:35:30.568Z,19.28
2018-06-25T07:37:58.668Z,19.34
2018-06-25T07:40:26.728Z,19.30
2018-06-25T07:42:54.817Z,19.44
2018-06-25T07:45:22.928Z,19.35
2018-06-25T07:47:51.018Z,19.26
2018-06-25T07:50:19.176Z,19.30
2018-06-25T07:52:47.263Z,19.34
2018-06-25T07:55:15.343Z,19.43
2018-06-25T07:57:43.432Z,19.44
2018-06-25T08:00:11.521Z,19.48
2018-06-25T08:02:39.612Z,19.51
2018-06-25T08:05:07.690Z,19.52
2018-06-25T08:07:35.763Z,19.62
2018-06-25T08:10:04.009Z,19.75
2018-06-25T08:12:32.080Z,19.84
2018-06-25T08:15:00.219Z,19.86
2018-06-25T08:17:28.299Z,19.60
2018-06-25T08:19:56.647Z,19.67
2018-06-25T08:22:24.800Z,19.87
2018-06-25T08:24:52.891Z,19.86
2018-06-25T08:27:21.024Z,19.86
2018-06-25T08:29:49.173Z,19.95
2018-06-25T08:32:17.164Z,19.67
2018-06-25T08:34:45.272Z,20.03
2018-06-25T08:37:13.419Z,20.34
2018-06-25T08:39:41.500Z,20.55
2018-06-25T08:42:09.592Z,20.86
2018-06-25T08:44:37.703Z,20.87
2018-06-25T08:47:05.982Z,20.98
2018-06-25T08:49:34.051Z,20.93
2018-06-25T08:52:02.221Z,20.98
2018-06-25T08:54:30.207Z,20.96
2018-06-25T08:56:58.380Z,21.02
2018-06-25T08:59:27.057Z,20.78
2018-06-25T09:01:55.172Z,20.89
2018-06-25T09:04:23.268Z,20.83
2018-06-25T09:06:51.312Z,21.02
2018-06-25T09:09:19.381Z,20.81
2018-06-25T09:11:47.451Z,20.40
2018-06-25T09:14:15.526Z,20.39
2018-06-25T09:16:43.590Z,20.88
2018-06-25T09:19:11.673Z,21.07
2018-06-25T09:21:39.743Z,20.95
2018-06-25T09:24:07.822Z,21.30
2018-06-25T09:26:40.568Z,21.50
2018-06-25T09:29:09.155Z,21.49
2018-06-25T09:31:37.226Z,21.48
2018-06-25T09:34:10.387Z,21.26
2018-06-25T09:36:38.610Z,21.58
2018-06-25T09:39:08.713Z,21.75
2018-06-25T09:41:36.929Z,21.84
2018-06-25T09:44:04.903Z,22.04
2018-06-25T09:46:32.971Z,21.87
2018-06-25T09:49:01.059Z,21.79
2018-06-25T09:51:29.191Z,20.90
2018-06-25T09:53:57.261Z,20.98
2018-06-25T09:56:25.374Z,20.76
2018-06-25T09:58:53.476Z,20.88
2018-06-25T10:01:21.563Z,21.11
2018-06-25T10:03:49.658Z,21.13
2018-06-25T10:06:17.747Z,21.66
2018-06-25T10:08:45.800Z,21.76
2018-06-25T10:11:13.895Z,21.80
2018-06-25T10:13:41.985Z,21.74
2018-06-25T10:16:10.091Z,21.73
2018-06-25T10:18:38.187Z,21.33
2018-06-25T10:21:06.460Z,21.53
2018-06-25T10:23:34.510Z,21.88
2018-06-25T10:26:02.643Z,21.94
2018-06-25T10:28:30.776Z,21.91
2018-06-25T10:30:58.840Z,21.92
2018-06-25T10:33:26.898Z,22.05
2018-06-25T10:35:55.120Z,22.05
2018-06-25T10:38:23.208Z,22.11
2018-06-25T10:40:51.290Z,21.99
2018-06-25T10:43:19.348Z,21.84
2018-06-25T10:45:47.426Z,21.92
2018-06-25T10:48:15.500Z,21.89
2018-06-25T10:50:43.609Z,21.90
2018-06-25T10:53:11.697Z,21.90
2018-06-25T10:55:39.771Z,22.07
2018-06-25T10:58:07.886Z,21.61
2018-06-25T11:00:35.993Z,22.10
2018-06-25T11:03:04.081Z,22.34
2018-06-25T11:05:32.170Z,22.55
2018-06-25T11:08:00.265Z,22.57
2018-06-25T11:10:28.324Z,22.55
2018-06-25T11:12:56.779Z,22.61
2018-06-25T11:15:24.862Z,22.47
2018-06-25T11:17:52.978Z,22.86
2018-06-25T11:20:21.053Z,23.09
2018-06-25T11:22:49.243Z,22.97
2018-06-25T11:25:17.327Z,22.81
2018-06-25T11:27:45.415Z,22.84
2018-06-25T11:30:13.519Z,22.81
2018-06-25T11:32:41.604Z,22.83
2018-06-25T11:35:09.664Z,22.59
2018-06-25T11:37:37.855Z,22.28
2018-06-25T11:40:05.931Z,22.68
2018-06-25T11:42:34.007Z,22.96
2018-06-25T11:45:02.099Z,22.82
2018-06-25T11:47:30.211Z,23.27
2018-06-25T11:49:58.423Z,23.01
2018-06-25T11:52:26.504Z,23.30
2018-06-25T11:54:54.603Z,23.36
2018-06-25T11:57:22.679Z,22.89
2018-06-25T11:59:50.750Z,23.32
2018-06-25T12:02:18.864Z,23.15
2018-06-25T12:04:46.997Z,23.16
2018-06-25T12:07:15.095Z,23.12
2018-06-25T12:09:43.187Z,23.18
2018-06-25T12:12:11.278Z,23.41
2018-06-25T12:14:39.378Z,23.42
2018-06-25T12:17:07.415Z,23.68
2018-06-25T12:19:35.570Z,23.60
2018-06-25T12:22:03.698Z,23.76
2018-06-25T12:24:31.783Z,23.70
2018-06-25T12:26:59.877Z,23.40
2018-06-25T12:29:27.993Z,23.30
2018-06-25T12:31:56.081Z,23.27
2018-06-25T12:34:24.168Z,23.33
2018-06-25T12:36:52.233Z,23.46
2018-06-25T12:39:20.316Z,23.53
2018-06-25T12:41:48.404Z,23.52
2018-06-25T12:44:16.472Z,23.77
2018-06-25T12:46:44.535Z,23.97
2018-06-25T12:49:12.619Z,23.83
2018-06-25T12:51:40.702Z,23.79
2018-06-25T12:54:08.795Z,23.77
2018-06-25T12:56:36.859Z,23.73
2018-06-25T12:59:05.062Z,23.62
2018-06-25T13:01:33.229Z,23.75
2018-06-25T13:04:01.266Z,23.72
2018-06-25T13:06:29.363Z,23.82
2018-06-25T13:08:57.448Z,23.89
2018-06-25T13:11:25.495Z,23.63
2018-06-25T13:13:53.557Z,23.85
2018-06-25T13:16:21.647Z,23.76
2018-06-25T13:18:49.726Z,23.89
2018-06-25T13:21:17.814Z,23.81
2018-06-25T13:23:45.916Z,23.48
2018-06-25T13:26:13.990Z,23.64
2018-06-25T13:28:42.159Z,23.91
2018-06-25T13:31:10.293Z,24.03
2018-06-25T13:33:38.314Z,24.26
2018-06-25T13:36:06.926Z,24.34
2018-06-25T13:38:35.180Z,24.14
2018-06-25T13:41:03.278Z,24.15
2018-06-25T13:43:31.370Z,24.32
2018-06-25T13:45:59.480Z,24.42
2018-06-25T13:48:27.551Z,24.47
2018-06-25T13:50:55.635Z,24.53
2018-06-25T13:53:23.746Z,24.76
2018-06-25T13:55:51.835Z,24.88
2018-06-25T13:58:19.933Z,24.88
2018-06-25T14:00:47.995Z,24.82
2018-06-25T14:03:16.083Z,24.78
2018-06-25T14:05:44.182Z,24.64
2018-06-25T14:08:12.250Z,24.29
2018-06-25T14:10:40.315Z,24.18
2018-06-25T14:13:08.429Z,24.41
2018-06-25T14:15:36.494Z,24.72
2018-06-25T14:18:04.584Z,25.09
2018-06-25T14:20:32.660Z,25.25
2018-06-25T14:23:00.755Z,25.13
2018-06-25T14:25:28.830Z,25.08
2018-06-25T14:28:02.303Z,25.06
2018-06-25T14:31:34.106Z,25.15
2018-06-25T14:34:07.605Z,25.18
2018-06-25T14:36:35.680Z,25.05
2018-06-25T14:39:05.261Z,25.26
2018-06-25T14:41:33.360Z,25.00
2018-06-25T14:44:01.439Z,25.23
2018-06-25T14:46:29.528Z,25.31
2018-06-25T14:48:57.623Z,25.03
2018-06-25T14:51:25.710Z,24.79
2018-06-25T14:53:53.919Z,24.66
2018-06-25T14:56:21.983Z,24.74
2018-06-25T14:58:50.060Z,24.88
2018-06-25T15:01:18.173Z,24.89
2018-06-25T15:03:46.283Z,24.84
2018-06-25T15:06:14.372Z,24.77
2018-06-25T15:08:42.451Z,24.96
2018-06-25T15:11:10.532Z,24.91
2018-06-25T15:13:38.660Z,24.95
2018-06-25T15:16:06.727Z,25.01
2018-06-25T15:18:34.804Z,24.72
2018-06-25T15:21:02.871Z,24.75
2018-06-25T15:23:30.963Z,24.85
2018-06-25T15:25:59.136Z,24.62
2018-06-25T15:28:27.183Z,24.68
2018-06-25T15:30:55.315Z,24.80
2018-06-25T15:33:23.393Z,25.07
2018-06-25T15:35:51.531Z,25.43
2018-06-25T15:38:19.632Z,25.26
2018-06-25T15:40:47.765Z,24.85
2018-06-25T15:43:15.848Z,25.11
2018-06-25T15:45:43.975Z,25.27
2018-06-25T15:48:12.040Z,25.23
2018-06-25T15:50:40.147Z,25.46
2018-06-25T15:53:08.254Z,25.70
2018-06-25T15:55:36.316Z,25.56
2018-06-25T15:58:04.535Z,25.11
2018-06-25T16:00:32.920Z,25.40
2018-06-25T16:03:01.010Z,25.39
2018-06-25T16:05:29.109Z,25.31
2018-06-25T16:08:02.016Z,24.68
2018-06-25T16:10:30.141Z,24.66
2018-06-25T16:13:11.489Z,24.63
2018-06-25T16:15:39.676Z,24.78
2018-06-25T16:18:07.795Z,24.96
2018-06-25T16:20:35.880Z,24.92
2018-06-25T16:23:03.952Z,24.88
2018-06-25T16:25:32.025Z,24.97
2018-06-25T16:28:00.150Z,25.00
2018-06-25T16:30:28.214Z,24.80
2018-06-25T16:32:56.291Z,24.97
2018-06-25T16:35:24.360Z,25.05
2018-06-25T16:37:52.452Z,24.60
2018-06-25T16:40:20.540Z,24.74
2018-06-25T16:42:48.627Z,24.40
2018-06-25T16:45:16.709Z,24.36
2018-06-25T16:47:44.788Z,24.69
2018-06-25T16:50:12.884Z,24.83
2018-06-25T16:52:41.019Z,24.75
2018-06-25T16:55:09.111Z,25.49
2018-06-25T16:57:37.195Z,26.28
2018-06-25T17:00:05.973Z,26.41
2018-06-25T17:02:34.067Z,26.24
2018-06-25T17:05:02.311Z,26.27
2018-06-25T17:07:30.416Z,26.21
2018-06-25T17:09:58.467Z,25.85
2018-06-25T17:12:26.591Z,25.63
2018-06-25T17:14:54.659Z,25.35
2018-06-25T17:17:22.750Z,25.02
2018-06-25T17:19:50.856Z,24.87
2018-06-25T17:22:18.952Z,24.92
2018-06-25T17:24:47.053Z,24.91
2018-06-25T17:27:15.562Z,25.04
2018-06-25T17:29:43.666Z,25.15
2018-06-25T17:32:11.728Z,24.69
2018-06-25T17:34:39.817Z,24.48
2018-06-25T17:37:07.916Z,24.43
2018-06-25T17:39:36.009Z,24.79
2018-06-25T17:42:04.111Z,24.72
2018-06-25T17:44:32.531Z,24.56
2018-06-25T17:47:01.104Z,24.31
2018-06-25T17:49:29.302Z,24.64
2018-06-25T17:51:57.288Z,24.84
2018-06-25T17:54:25.605Z,24.38
2018-06-25T17:56:53.736Z,24.23
2018-06-25T17:59:21.847Z,23.83
2018-06-25T18:01:49.964Z,23.76
2018-06-25T18:04:18.136Z,23.50
2018-06-25T18:06:46.211Z,23.34
2018-06-25T18:09:14.278Z,23.25
2018-06-25T18:11:42.361Z,23.31
2018-06-25T18:14:10.499Z,23.27
2018-06-25T18:16:38.576Z,23.20
2018-06-25T18:19:06.746Z,23.15
2018-06-25T18:21:34.836Z,23.22
2018-06-25T18:24:03.280Z,22.85
2018-06-25T18:26:31.414Z,22.79
2018-06-25T18:29:00.008Z,22.72
2018-06-25T18:31:29.071Z,22.81
2018-06-25T18:33:58.230Z,22.66
2018-06-25T18:36:27.801Z,22.60
2018-06-25T18:38:56.686Z,22.52
2018-06-25T18:41:25.407Z,22.44
2018-06-25T18:43:54.160Z,22.45
2018-06-25T18:46:23.159Z,22.40
2018-06-25T18:48:51.340Z,22.37
2018-06-25T18:51:19.481Z,22.37
2018-06-25T18:53:49.174Z,22.31
2018-06-25T18:56:17.977Z,22.22
2018-06-25T18:58:46.419Z,21.99
2018-06-25T19:01:24.526Z,22.04
2018-06-25T19:03:53.783Z,21.85
2018-06-25T19:06:22.611Z,21.93
2018-06-25T19:08:51.046Z,21.92
2018-06-25T19:11:19.390Z,21.81
2018-06-25T19:13:50.383Z,21.72
2018-06-25T19:16:22.314Z,21.75
2018-06-25T19:18:52.333Z,21.66
2018-06-25T19:21:21.078Z,21.61
2018-06-25T19:23:52.822Z,21.46
2018-06-25T19:26:21.529Z,21.51
2018-06-25T19:28:53.337Z,21.34
2018-06-25T19:31:23.361Z,21.43
2018-06-25T19:33:52.028Z,21.45
2018-06-25T19:36:20.196Z,21.34
2018-06-25T19:38:48.760Z,21.37
2018-06-25T19:41:16.942Z,21.32
2018-06-25T19:43:49.361Z,21.23
2018-06-25T19:46:17.899Z,21.16
2018-06-25T19:48:51.467Z,21.13
2018-06-25T19:51:20.840Z,21.09
2018-06-25T19:53:49.124Z,21.12
2018-06-25T19:56:17.755Z,21.11
2018-06-25T19:58:47.685Z,21.05
2018-06-25T20:01:16.503Z,20.91
2018-06-25T20:03:45.707Z,20.87
2018-06-25T20:06:17.766Z,20.88
2018-06-25T20:08:47.734Z,20.88
2018-06-25T20:11:15.901Z,20.77
2018-06-25T20:13:44.749Z,20.67
2018-06-25T20:16:17.190Z,20.46
2018-06-25T20:18:46.347Z,20.43
2018-06-25T20:21:14.572Z,20.20
2018-06-25T20:23:44.355Z,20.04
2018-06-25T20:26:13.116Z,19.88
2018-06-25T20:28:42.890Z,19.88
2018-06-25T20:31:11.291Z,19.86
2018-06-25T20:33:53.564Z,19.66
2018-06-25T20:36:30.295Z,19.66
2018-06-25T20:39:00.063Z,19.72
2018-06-25T20:41:29.265Z,19.78
2018-06-25T20:43:58.715Z,19.75
2018-06-25T20:46:32.393Z,19.86
2018-06-25T20:49:00.790Z,19.78
2018-06-25T20:51:29.179Z,19.82
2018-06-25T20:53:57.874Z,19.82
2018-06-25T20:56:28.333Z,19.86
2018-06-25T20:58:57.890Z,19.78
2018-06-25T21:01:26.512Z,19.80
2018-06-25T21:03:56.387Z,19.77
2018-06-25T21:06:27.105Z,19.75
2018-06-25T21:08:56.207Z,19.62
2018-06-25T21:11:24.599Z,19.67
2018-06-25T21:13:54.618Z,19.69
2018-06-25T21:16:24.474Z,19.56
2018-06-25T21:18:52.601Z,19.48
2018-06-25T21:21:22.926Z,19.32
2018-06-25T21:23:51.581Z,19.35
2018-06-25T21:26:19.951Z,19.27
2018-06-25T21:28:49.343Z,19.17
2018-06-25T21:31:17.840Z,19.47
2018-06-25T21:33:47.077Z,19.53
2018-06-25T21:36:16.930Z,19.35
2018-06-25T21:38:48.115Z,19.33
2018-06-25T21:41:17.065Z,19.35
2018-06-25T21:43:46.092Z,19.06
2018-06-25T21:46:15.293Z,18.99
2018-06-25T21:48:44.547Z,18.95
2018-06-25T21:51:12.752Z,18.69
2018-06-25T21:53:41.354Z,18.66
2018-06-25T21:56:10.180Z,18.61
2018-06-25T21:58:42.238Z,18.53
2018-06-25T22:01:11.523Z,18.50
2018-06-25T22:03:40.437Z,18.48
2018-06-25T22:06:10.872Z,18.46
2018-06-25T22:08:40.287Z,18.46
2018-06-25T22:11:09.425Z,18.54
2018-06-25T22:13:37.667Z,18.53
2018-06-25T22:16:06.698Z,18.56
2018-06-25T22:18:35.568Z,18.60
2018-06-25T22:21:03.821Z,18.68
2018-06-25T22:23:32.334Z,18.65
2018-06-25T22:26:00.751Z,18.69
2018-06-25T22:28:34.785Z,18.70
2018-06-25T22:31:03.490Z,18.73
2018-06-25T22:33:32.485Z,18.76
2018-06-25T22:36:03.388Z,18.70
2018-06-25T22:38:31.719Z,18.77
2018-06-25T22:41:01.471Z,18.82
2018-06-25T22:43:30.885Z,18.79
2018-06-25T22:46:04.282Z,18.81
2018-06-25T22:48:32.463Z,18.86
2018-06-25T22:51:00.543Z,19.02
2018-06-25T22:53:28.679Z,18.95
2018-06-25T22:55:56.760Z,18.84
2018-06-25T22:58:24.839Z,18.75
2018-06-25T23:00:52.976Z,18.81
2018-06-25T23:03:21.063Z,18.89
2018-06-25T23:05:49.135Z,18.80
2018-06-25T23:08:17.220Z,18.59
2018-06-25T23:10:45.279Z,18.44
2018-06-25T23:13:13.555Z,18.32
2018-06-25T23:15:41.637Z,18.36
2018-06-25T23:18:09.751Z,18.32
2018-06-25T23:20:37.891Z,18.42
2018-06-25T23:23:06.096Z,18.27
2018-06-25T23:25:34.203Z,18.20
2018-06-25T23:28:02.273Z,18.17
2018-06-25T23:30:30.349Z,18.32
2018-06-25T23:32:58.419Z,18.39
2018-06-25T23:35:26.506Z,18.33
2018-06-25T23:37:54.596Z,18.34
2018-06-25T23:40:22.695Z,18.25
2018-06-25T23:42:50.772Z,18.26
2018-06-25T23:45:18.866Z,18.24
2018-06-25T23:47:46.950Z,18.21
2018-06-25T23:50:15.032Z,18.29
2018-06-25T23:52:43.121Z,18.19
2018-06-25T23:55:11.208Z,18.18
2018-06-25T23:57:39.271Z,18.10
